createdAt,value
2023-05-23T00:01:32.108Z,6.28
2023-05-23T00:04:34.172Z,6.65
2023-05-23T00:07:36.254Z,6.47
2023-05-23T00:10:38.676Z,7.38
2023-05-23T00:13:44.196Z,6.88
2023-05-23T00:16:46.698Z,7.03
2023-05-23T00:19:48.469Z,6.90
2023-05-23T00:22:50.198Z,6.13
2023-05-23T00:25:52.314Z,7.18
2023-05-23T00:28:56.105Z,6.97
2023-05-23T00:31:57.872Z,7.20
2023-05-23T00:34:59.813Z,7.38
2023-05-23T00:38:03.896Z,8.52
2023-05-23T00:41:06.428Z,7.97
2023-05-23T00:44:09.943Z,7.72
2023-05-23T00:47:11.800Z,8.07
2023-05-23T00:50:14.849Z,6.97
2023-05-23T00:53:17.091Z,7.97
2023-05-23T00:56:19.130Z,7.53
2023-05-23T00:59:23.920Z,7.32
2023-05-23T01:02:25.879Z,6.97
2023-05-23T01:05:29.003Z,7.78
2023-05-23T01:08:31.684Z,7.45
2023-05-23T01:11:42.058Z,7.43
2023-05-23T01:14:51.672Z,6.97
2023-05-23T01:18:02.888Z,8.00
2023-05-23T01:21:10.692Z,8.02
2023-05-23T01:24:40.737Z,8.00
2023-05-23T01:27:51.333Z,7.82
2023-05-23T01:30:57.846Z,7.30
2023-05-23T01:34:00.738Z,7.63
2023-05-23T01:37:10.629Z,7.85
2023-05-23T01:40:12.734Z,7.57
2023-05-23T01:43:16.256Z,8.18
2023-05-23T01:46:18.930Z,7.43
2023-05-23T01:49:22.910Z,8.05
2023-05-23T01:52:25.223Z,7.55
2023-05-23T01:55:27.892Z,8.25
2023-05-23T01:58:32.292Z,7.70
2023-05-23T02:01:38.634Z,8.95
2023-05-23T02:04:40.662Z,7.93
2023-05-23T02:07:43.072Z,7.55
2023-05-23T02:10:46.088Z,7.63
2023-05-23T02:13:50.158Z,8.35
2023-05-23T02:16:52.265Z,8.15
2023-05-23T02:19:54.709Z,7.93
2023-05-23T02:22:56.644Z,7.97
2023-05-23T02:25:58.969Z,8.05
2023-05-23T02:29:02.534Z,8.43
2023-05-23T02:32:04.810Z,8.40
2023-05-23T02:35:07.666Z,8.30
2023-05-23T02:38:12.019Z,7.95
2023-05-23T02:41:13.836Z,9.07
2023-05-23T02:44:16.950Z,8.85
2023-05-23T02:47:20.648Z,8.35
2023-05-23T02:50:25.121Z,8.60
2023-05-23T02:53:27.442Z,8.38
2023-05-23T02:56:30.606Z,8.30
2023-05-23T02:59:34.242Z,8.27
2023-05-23T03:02:36.303Z,8.85
2023-05-23T03:05:38.590Z,9.50
2023-05-23T03:08:41.555Z,9.20
2023-05-23T03:11:45.020Z,9.07
2023-05-23T03:14:48.338Z,8.80
2023-05-23T03:17:50.451Z,8.93
2023-05-23T03:20:55.365Z,8.43
2023-05-23T03:23:57.429Z,8.50
2023-05-23T03:27:00.207Z,8.60
2023-05-23T03:30:03.875Z,8.60
2023-05-23T03:33:05.731Z,8.95
2023-05-23T03:36:08.050Z,10.13
2023-05-23T03:39:09.959Z,9.63
2023-05-23T03:42:11.987Z,9.63
2023-05-23T03:45:17.858Z,9.65
2023-05-23T03:48:21.124Z,9.18
2023-05-23T03:51:23.184Z,9.90
2023-05-23T03:54:25.459Z,9.50
2023-05-23T03:57:28.715Z,9.90
2023-05-23T04:00:33.403Z,9.07
2023-05-23T04:03:37.868Z,9.05
2023-05-23T04:06:39.992Z,9.32
2023-05-23T04:09:44.303Z,9.35
2023-05-23T04:12:46.489Z,9.35
2023-05-23T04:15:50.603Z,9.88
2023-05-23T04:18:52.479Z,9.50
2023-05-23T04:21:54.487Z,9.40
2023-05-23T04:24:57.856Z,10.45
2023-05-23T04:28:00.347Z,9.13
2023-05-23T04:31:04.446Z,10.90
2023-05-23T04:34:06.914Z,9.50
2023-05-23T04:37:09.186Z,10.65
2023-05-23T04:40:13.163Z,9.80
2023-05-23T04:43:18.541Z,10.30
2023-05-23T04:46:22.132Z,10.60
2023-05-23T04:49:24.036Z,10.23
2023-05-23T04:52:27.702Z,10.57
2023-05-23T04:55:30.773Z,9.60
2023-05-23T04:58:32.953Z,10.27
2023-05-23T05:01:43.749Z,10.23
2023-05-23T05:04:47.369Z,9.98
2023-05-23T05:07:49.867Z,9.85
2023-05-23T05:10:53.216Z,10.50
2023-05-23T05:13:55.702Z,10.63
2023-05-23T05:16:59.875Z,10.52
2023-05-23T05:20:03.565Z,10.85
2023-05-23T05:23:05.930Z,11.10
2023-05-23T05:26:07.984Z,10.98
2023-05-23T05:29:09.899Z,11.10
2023-05-23T05:32:13.820Z,12.23
2023-05-23T05:35:16.425Z,11.85
2023-05-23T05:38:18.455Z,10.80
2023-05-23T05:41:20.284Z,11.13
2023-05-23T05:44:22.711Z,11.65
2023-05-23T05:47:28.453Z,11.30
2023-05-23T05:50:31.257Z,10.45
2023-05-23T05:53:33.158Z,10.65
2023-05-23T05:56:35.118Z,11.55
2023-05-23T05:59:37.235Z,10.85
2023-05-23T06:02:41.601Z,11.57
2023-05-23T06:05:43.405Z,11.43
2023-05-23T06:08:45.282Z,10.77
2023-05-23T06:11:48.544Z,11.52
2023-05-23T06:14:50.682Z,11.35
2023-05-23T06:17:55.820Z,10.98
2023-05-23T06:20:58.440Z,11.63
2023-05-23T06:24:03.542Z,11.45
2023-05-23T06:27:05.987Z,11.27
2023-05-23T06:30:09.032Z,11.32
2023-05-23T06:33:12.507Z,10.63
2023-05-23T06:36:14.653Z,11.63
2023-05-23T06:39:17.002Z,11.43
2023-05-23T06:42:18.813Z,11.82
2023-05-23T06:45:20.600Z,11.43
2023-05-23T06:48:26.105Z,12.50
2023-05-23T06:51:28.592Z,11.13
2023-05-23T06:54:30.677Z,10.27
2023-05-23T06:57:32.420Z,11.25
2023-05-23T07:00:34.410Z,11.15
2023-05-23T07:03:37.742Z,11.50
2023-05-23T07:06:39.819Z,11.23
2023-05-23T07:09:43.386Z,11.85
2023-05-23T07:12:45.181Z,11.80
2023-05-23T07:15:47.151Z,11.30
2023-05-23T07:18:52.744Z,11.60
2023-05-23T07:21:57.367Z,11.35
2023-05-23T07:24:59.474Z,12.02
2023-05-23T07:28:04.834Z,11.20
2023-05-23T07:31:07.063Z,11.27
2023-05-23T07:34:10.574Z,10.93
2023-05-23T07:37:15.114Z,10.75
2023-05-23T07:40:17.374Z,11.98
2023-05-23T07:43:19.427Z,10.88
2023-05-23T07:46:21.230Z,10.40
2023-05-23T07:49:24.592Z,10.75
2023-05-23T07:52:28.488Z,11.43
2023-05-23T07:55:30.234Z,10.75
2023-05-23T07:58:31.999Z,10.10
2023-05-23T08:01:36.680Z,9.45
2023-05-23T08:04:42.813Z,9.15
2023-05-23T08:07:45.976Z,10.00
2023-05-23T08:10:48.089Z,9.25
2023-05-23T08:13:50.850Z,9.82
2023-05-23T08:16:52.887Z,11.05
2023-05-23T08:19:56.435Z,10.85
2023-05-23T08:22:59.372Z,9.65
2023-05-23T08:26:01.777Z,9.70
2023-05-23T08:29:05.746Z,9.55
2023-05-23T08:32:07.808Z,10.10
2023-05-23T08:35:11.505Z,9.82
2023-05-23T08:38:14.635Z,10.13
2023-05-23T08:41:20.642Z,10.27
2023-05-23T08:44:23.026Z,10.73
2023-05-23T08:47:25.110Z,9.63
2023-05-23T08:50:30.702Z,9.27
2023-05-23T08:53:33.364Z,9.98
2023-05-23T08:56:36.450Z,10.85
2023-05-23T08:59:41.519Z,10.95
2023-05-23T09:02:44.748Z,10.70
2023-05-23T09:05:49.702Z,11.13
2023-05-23T09:08:52.008Z,11.35
2023-05-23T09:11:56.225Z,12.60
2023-05-23T09:14:58.236Z,12.32
2023-05-23T09:18:01.111Z,11.55
2023-05-23T09:21:08.341Z,12.90
2023-05-23T09:24:10.439Z,13.60
2023-05-23T09:27:12.668Z,14.13
2023-05-23T09:30:15.316Z,13.55
2023-05-23T09:33:17.263Z,14.15
2023-05-23T09:36:21.920Z,14.07
2023-05-23T09:39:25.041Z,12.95
2023-05-23T09:42:32.252Z,13.85
2023-05-23T09:45:35.068Z,14.50
2023-05-23T09:48:37.424Z,12.65
2023-05-23T09:51:41.360Z,12.95
2023-05-23T09:54:43.520Z,12.48
2023-05-23T09:57:49.943Z,11.30
2023-05-23T10:00:53.367Z,10.27
2023-05-23T10:03:57.931Z,11.75
2023-05-23T10:07:07.475Z,12.20
2023-05-23T10:10:12.633Z,13.65
2023-05-23T10:13:14.735Z,13.27
2023-05-23T10:16:28.956Z,13.20
2023-05-23T10:19:42.276Z,13.30
2023-05-23T10:22:46.569Z,13.20
2023-05-23T10:25:51.289Z,13.55
2023-05-23T10:28:54.851Z,12.75
2023-05-23T10:31:57.798Z,14.55
2023-05-23T10:35:05.317Z,14.30
2023-05-23T10:38:25.053Z,14.13
2023-05-23T10:41:33.949Z,14.10
2023-05-23T10:44:36.876Z,14.32
2023-05-23T10:47:40.386Z,14.73
2023-05-23T10:50:42.673Z,14.50
2023-05-23T10:53:53.834Z,13.13
2023-05-23T10:57:03.589Z,12.40
2023-05-23T11:00:12.090Z,12.98
2023-05-23T11:03:14.332Z,13.53
2023-05-23T11:06:30.603Z,14.70
2023-05-23T11:09:33.907Z,14.57
2023-05-23T11:12:40.837Z,13.40
2023-05-23T11:15:43.142Z,13.18
2023-05-23T11:18:47.444Z,6.90
2023-05-23T11:21:50.991Z,9.02
2023-05-23T11:24:55.203Z,7.35
2023-05-23T11:27:57.208Z,8.38
2023-05-23T11:30:59.394Z,9.57
2023-05-23T11:34:03.037Z,11.27
2023-05-23T11:37:06.169Z,12.43
2023-05-23T11:40:30.190Z,14.80
2023-05-23T11:43:32.230Z,16.23
2023-05-23T11:46:34.342Z,15.00
2023-05-23T11:49:39.619Z,16.70
2023-05-23T11:52:41.463Z,16.58
2023-05-23T11:55:53.685Z,14.82
2023-05-23T11:58:57.548Z,15.35
2023-05-23T12:02:02.791Z,13.40
2023-05-23T12:05:09.553Z,13.68
2023-05-23T12:08:15.121Z,13.65
2023-05-23T12:11:19.964Z,14.20
2023-05-23T12:14:22.214Z,13.93
2023-05-23T12:17:24.171Z,12.95
2023-05-23T12:20:33.514Z,12.52
2023-05-23T12:23:37.146Z,13.73
2023-05-23T12:26:53.422Z,14.73
2023-05-23T12:30:05.594Z,14.90
2023-05-23T12:33:10.010Z,13.77
2023-05-23T12:36:13.631Z,13.88
2023-05-23T12:39:16.836Z,13.18
2023-05-23T12:42:24.053Z,12.88
2023-05-23T12:45:33.440Z,13.13
2023-05-23T12:48:39.191Z,12.38
2023-05-23T12:51:41.426Z,11.00
2023-05-23T12:54:44.577Z,10.88
2023-05-23T12:57:48.303Z,10.15
2023-05-23T13:00:52.645Z,11.68
2023-05-23T13:03:56.776Z,12.32
2023-05-23T13:07:01.142Z,11.52
2023-05-23T13:10:04.421Z,11.60
2023-05-23T13:13:09.167Z,12.50
2023-05-23T13:16:13.176Z,12.75
2023-05-23T13:19:14.970Z,11.93
2023-05-23T13:22:18.394Z,13.13
2023-05-23T13:25:20.813Z,13.85
2023-05-23T13:28:26.735Z,13.75
2023-05-23T13:31:31.629Z,15.55
2023-05-23T13:34:33.922Z,14.70
2023-05-23T13:37:35.748Z,14.27
2023-05-23T13:40:40.625Z,14.00
2023-05-23T13:43:46.497Z,12.48
2023-05-23T13:46:48.713Z,13.50
2023-05-23T13:49:50.780Z,14.75
2023-05-23T13:52:57.362Z,14.60
2023-05-23T13:55:59.447Z,14.25
2023-05-23T13:59:03.025Z,15.35
2023-05-23T14:02:05.616Z,15.45
2023-05-23T14:05:08.183Z,16.45
2023-05-23T14:08:10.530Z,16.50
2023-05-23T14:11:13.095Z,16.98
2023-05-23T14:14:16.304Z,17.05
2023-05-23T14:17:18.716Z,16.13
2023-05-23T14:20:24.006Z,16.75
2023-05-23T14:23:26.303Z,16.45
2023-05-23T14:26:29.351Z,17.10
2023-05-23T14:29:33.202Z,17.02
2023-05-23T14:32:35.594Z,17.52
2023-05-23T14:35:39.262Z,17.90
2023-05-23T14:38:42.480Z,17.35
2023-05-23T14:41:44.754Z,17.77
2023-05-23T14:44:50.408Z,17.73
2023-05-23T14:47:52.910Z,17.45
2023-05-23T14:50:57.413Z,17.85
2023-05-23T14:54:02.740Z,18.40
2023-05-23T14:57:05.176Z,18.67
2023-05-23T15:00:11.488Z,18.70
2023-05-23T15:03:15.861Z,18.77
2023-05-23T15:06:18.220Z,19.17
2023-05-23T15:09:20.691Z,18.70
2023-05-23T15:12:26.493Z,16.58
2023-05-23T15:15:33.636Z,13.77
2023-05-23T15:18:41.173Z,10.45
2023-05-23T15:24:50.990Z,10.77
2023-05-23T15:27:52.767Z,14.20
2023-05-23T15:30:58.170Z,15.05
2023-05-23T15:34:00.727Z,15.88
2023-05-23T15:37:02.693Z,15.13
2023-05-23T15:40:06.803Z,16.40
2023-05-23T15:43:09.196Z,14.95
2023-05-23T15:46:14.444Z,15.32
2023-05-23T15:49:24.889Z,13.40
2023-05-23T15:52:28.132Z,14.18
2023-05-23T15:55:30.229Z,13.82
2023-05-23T15:58:31.947Z,15.68
2023-05-23T16:01:35.291Z,14.75
2023-05-23T16:04:37.585Z,14.27
2023-05-23T16:07:39.476Z,14.60
2023-05-23T16:10:43.651Z,13.60
2023-05-23T16:13:48.133Z,10.98
2023-05-23T16:16:51.798Z,6.88
2023-05-23T16:19:53.975Z,6.80
2023-05-23T16:22:56.227Z,7.00
2023-05-23T16:26:00.600Z,7.25
2023-05-23T16:29:03.109Z,6.75
2023-05-23T16:32:07.852Z,6.30
2023-05-23T16:35:10.389Z,5.88
2023-05-23T16:38:12.164Z,5.72
2023-05-23T16:41:15.941Z,7.32
2023-05-23T16:44:17.986Z,8.25
2023-05-23T16:47:23.351Z,8.15
2023-05-23T16:50:26.550Z,9.75
2023-05-23T16:53:31.685Z,9.73
2023-05-23T16:56:34.170Z,10.88
2023-05-23T16:59:36.210Z,11.30
2023-05-23T17:02:43.764Z,11.80
2023-05-23T17:05:45.998Z,13.30
2023-05-23T17:08:48.687Z,13.15
2023-05-23T17:11:51.206Z,13.27
2023-05-23T17:14:53.068Z,14.02
2023-05-23T17:17:56.894Z,13.77
2023-05-23T17:20:59.326Z,13.52
2023-05-23T17:24:02.405Z,13.50
2023-05-23T17:27:05.528Z,13.25
2023-05-23T17:30:09.408Z,12.98
2023-05-23T17:33:16.117Z,13.85
2023-05-23T17:36:18.942Z,13.95
2023-05-23T17:39:22.590Z,14.75
2023-05-23T17:42:26.684Z,14.23
2023-05-23T17:45:29.272Z,13.93
2023-05-23T17:48:46.883Z,13.95
2023-05-23T17:51:50.416Z,13.88
2023-05-23T17:54:52.901Z,13.25
2023-05-23T17:57:56.975Z,13.38
2023-05-23T18:00:59.887Z,13.23
2023-05-23T18:04:05.931Z,12.90
2023-05-23T18:07:10.551Z,12.02
2023-05-23T18:10:13.020Z,12.85
2023-05-23T18:13:16.084Z,11.40
2023-05-23T18:16:21.540Z,12.02
2023-05-23T18:19:25.814Z,12.15
2023-05-23T18:22:28.562Z,11.90
2023-05-23T18:25:31.109Z,11.35
2023-05-23T18:28:34.680Z,11.25
2023-05-23T18:31:37.472Z,10.65
2023-05-23T18:34:43.681Z,11.65
2023-05-23T18:37:46.541Z,11.38
2023-05-23T18:40:49.074Z,10.60
2023-05-23T18:43:52.333Z,10.90
2023-05-23T18:46:56.563Z,10.32
2023-05-23T18:50:00.796Z,10.63
2023-05-23T18:53:04.207Z,9.90
2023-05-23T18:56:07.101Z,10.27
2023-05-23T18:59:12.380Z,10.23
2023-05-23T19:02:15.138Z,10.70
2023-05-23T19:05:19.186Z,10.07
2023-05-23T19:08:22.098Z,10.13
2023-05-23T19:11:25.561Z,9.88
2023-05-23T19:14:29.158Z,11.60
2023-05-23T19:17:34.915Z,10.57
2023-05-23T19:20:39.170Z,10.55
2023-05-23T19:23:42.054Z,11.60
2023-05-23T19:26:45.260Z,11.52
2023-05-23T19:29:50.270Z,11.00
2023-05-23T19:32:55.287Z,10.38
2023-05-23T19:35:59.196Z,9.63
2023-05-23T19:39:01.958Z,10.15
2023-05-23T19:42:07.989Z,8.88
2023-05-23T19:45:11.495Z,8.95
2023-05-23T19:48:13.977Z,8.57
2023-05-23T19:51:17.540Z,9.65
2023-05-23T19:54:20.124Z,11.77
2023-05-23T19:57:22.620Z,11.13
2023-05-23T20:00:25.074Z,8.48
2023-05-23T20:03:28.761Z,8.88
2023-05-23T20:06:35.594Z,9.27
2023-05-23T20:09:37.616Z,10.18
2023-05-23T20:12:39.970Z,9.45
2023-05-23T20:15:42.078Z,7.85
2023-05-23T20:18:45.376Z,7.85
2023-05-23T20:21:50.941Z,7.30
2023-05-23T20:24:54.203Z,7.22
2023-05-23T20:27:56.575Z,7.00
2023-05-23T20:31:02.025Z,7.45
2023-05-23T20:34:04.478Z,8.13
2023-05-23T20:37:08.939Z,7.10
2023-05-23T20:40:13.214Z,7.00
2023-05-23T20:43:15.505Z,7.72
2023-05-23T20:46:19.209Z,7.78
2023-05-23T20:49:21.508Z,8.07
2023-05-23T20:52:26.423Z,7.28
2023-05-23T20:55:29.265Z,8.32
2023-05-23T20:58:31.731Z,8.18
2023-05-23T21:01:33.812Z,7.30
2023-05-23T21:04:36.291Z,7.60
2023-05-23T21:07:40.293Z,7.15
2023-05-23T21:10:45.113Z,6.20
2023-05-23T21:13:49.818Z,6.43
2023-05-23T21:16:52.207Z,5.60
2023-05-23T21:19:54.130Z,5.65
2023-05-23T21:22:58.611Z,5.90
2023-05-23T21:26:01.166Z,5.15
2023-05-23T21:29:06.081Z,5.13
2023-05-23T21:32:07.812Z,5.38
2023-05-23T21:35:10.190Z,4.53
2023-05-23T21:38:13.544Z,4.72
2023-05-23T21:41:15.799Z,4.57
2023-05-23T21:44:18.255Z,4.97
2023-05-23T21:47:20.082Z,5.13
2023-05-23T21:50:24.035Z,4.63
2023-05-23T21:53:28.711Z,4.50
2023-05-23T21:56:30.465Z,4.78
2023-05-23T21:59:35.413Z,5.32
2023-05-23T22:02:38.696Z,5.82
2023-05-23T22:05:41.199Z,5.60
2023-05-23T22:08:48.199Z,6.70
2023-05-23T22:11:50.273Z,6.25
2023-05-23T22:14:52.853Z,5.53
2023-05-23T22:17:54.656Z,5.88
2023-05-23T22:20:59.056Z,5.13
2023-05-23T22:24:02.610Z,4.82
2023-05-23T22:27:05.134Z,5.20
2023-05-23T22:30:07.782Z,5.03
2023-05-23T22:33:12.184Z,4.95
2023-05-23T22:36:14.610Z,5.15
2023-05-23T22:39:17.820Z,4.78
2023-05-23T22:42:19.812Z,5.20
2023-05-23T22:45:21.786Z,4.90
2023-05-23T22:48:23.987Z,4.50
2023-05-23T22:51:27.000Z,4.57
2023-05-23T22:54:30.335Z,4.68
2023-05-23T22:57:32.096Z,4.57
2023-05-23T23:00:35.552Z,4.75
2023-05-23T23:03:37.459Z,4.13
2023-05-23T23:06:39.255Z,4.10
2023-05-23T23:09:44.973Z,4.40
2023-05-23T23:12:47.036Z,4.72
2023-05-23T23:15:50.647Z,4.65
2023-05-23T23:18:53.196Z,4.30
2023-05-23T23:21:55.893Z,4.47
2023-05-23T23:25:01.684Z,4.57
2023-05-23T23:28:04.578Z,4.28
2023-05-23T23:31:07.431Z,4.10
2023-05-23T23:34:09.213Z,5.03
2023-05-23T23:37:11.223Z,4.50
2023-05-23T23:40:16.260Z,4.65
2023-05-23T23:43:18.270Z,4.53
2023-05-23T23:46:20.272Z,4.82
2023-05-23T23:49:22.690Z,4.97
2023-05-23T23:52:25.682Z,4.90
2023-05-23T23:55:29.722Z,4.65
2023-05-23T23:58:31.733Z,5.30
